KFET

Fremont Municipal Airport

Fremont, Nebraska, USA
METAR KFET 190320Z AUTO 19006KT 10SM CLR 00/M04 A2989 RMK AO2 T00021037
Observed Flight Rules
Jan-19 @ 03:20 UTC (28 minutes ago) Visual Flight Rules
Wind Visibility Clouds
190° at 6 knots 10 miles
  • Clear skies
Temperatures Readings
Current 0°C / 32°F
Dewpoint -4°C / 25°F
Humidity 75%
Altimeter 29.89" Hg
Pressure 1012 hPa
Elevation 367
METAR KFET 190320Z AUTO 19006KT 10SM CLR 00/M04 A2989 RMK AO2 T00021037
Observed Flight Rules
Jan-19 @ 03:20 UTC
(28 minutes ago)
VFR
Wind Visibility
190° at 6 knots 10 miles
Clouds
  • Clear skies
Temperature Dewpoint
0°C / 32°F -4°C / 25°F
Humidity Altimeter Pressure
75% 29.89" Hg 1012 hPa